KR-0341 weather

Citadines Apartments-Motel Heliport
Haeundae (Busan), Busan Gwang'yeogsi, South Korea

Public forecast

Using degrees Celsius for public forecast. Weather courtesy of forecast.io.

METAR (pilot weather report)

Closest report is Gimhae International Airport, 10.8 nm (20.1 km) W. Retrieved 2019/08/21 21:44 UTC (7 minutes ago):

RKPK 212144Z 18017KT 1600 RA BR SCT008 BKN015 OVC030 27/25 Q1006 RMK CIG015

TAF (pilot weather forecast)

Closest forecast is Gimhae International Airport, 10.8 nm (20.1 km) W. Retrieved 2019/08/21 18:00 UTC (4 hours ago):

TAF RKPK 211700Z 2118/2224 18006KT 4800 BR SCT015 BKN030 TN26/2121Z TX29/2206Z TEMPO 2119/2123 -RA BR BKN015 BKN030